Time;durP1;ratioP1;P1;durP2;ratioP2;P2;SDS_P1;SDS_P2;PMS_P1;PMS_P2;Temp;Humidity;BMP_temperature;BMP_pressure;BME280_temperature;BME280_humidity;BME280_pressure;Samples;Min_cycle;Max_cycle;Signal;HPM_P1;HPM_P2
2021/04/07 00:00:08;;;;;;;1.70;1.60;;;1.00;98.20;;;;;;4987521;28;20473;-77
2021/04/07 00:02:35;;;;;;;1.77;1.67;;;0.90;98.20;;;;;;5006099;28;20479;-76
2021/04/07 00:05:08;;;;;;;1.60;1.50;;;0.90;98.20;;;;;;4993934;28;20473;-77
2021/04/07 00:07:34;;;;;;;1.87;1.77;;;0.90;98.20;;;;;;5005287;28;20944;-77
2021/04/07 00:10:02;;;;;;;1.70;1.60;;;0.80;98.20;;;;;;4987174;28;20465;-76
2021/04/07 00:12:28;;;;;;;1.60;1.50;;;0.80;98.20;;;;;;5005217;28;20479;-76
2021/04/07 00:14:54;;;;;;;1.70;1.60;;;0.80;98.20;;;;;;4993293;28;20492;-77
2021/04/07 00:17:21;;;;;;;1.73;1.63;;;0.80;98.20;;;;;;5003704;28;20487;-77
2021/04/07 00:19:48;;;;;;;1.60;1.50;;;0.80;98.20;;;;;;4997725;28;20496;-77
2021/04/07 00:22:14;;;;;;;1.70;1.60;;;0.80;98.20;;;;;;5005707;28;20481;-77
2021/04/07 00:24:40;;;;;;;1.70;1.60;;;0.80;98.20;;;;;;4999263;28;20461;-77
2021/04/07 00:27:10;;;;;;;1.70;1.60;;;0.80;98.20;;;;;;4989467;28;20484;-78
2021/04/07 00:29:36;;;;;;;1.63;1.50;;;0.80;98.20;;;;;;4996785;28;20492;-77
2021/04/07 00:32:03;;;;;;;1.70;1.60;;;0.90;98.20;;;;;;5002002;28;20610;-77
2021/04/07 00:34:31;;;;;;;1.60;1.50;;;0.80;98.20;;;;;;5001414;28;20896;-78
2021/04/07 00:36:58;;;;;;;1.60;1.50;;;0.80;98.20;;;;;;4999927;28;20470;-77
2021/04/07 00:39:24;;;;;;;1.60;1.50;;;0.80;98.20;;;;;;5003514;28;20985;-76
2021/04/07 00:41:51;;;;;;;1.70;1.60;;;0.80;98.20;;;;;;4999284;28;20485;-77
2021/04/07 00:44:17;;;;;;;1.60;1.50;;;0.80;98.20;;;;;;5003253;28;21145;-76
2021/04/07 00:46:43;;;;;;;1.60;1.50;;;0.80;98.20;;;;;;4995986;28;20554;-76
2021/04/07 00:49:10;;;;;;;1.60;1.50;;;0.80;98.20;;;;;;5007750;28;20487;-77
2021/04/07 00:51:37;;;;;;;1.73;1.63;;;0.80;98.20;;;;;;4993462;28;20497;-76
2021/04/07 00:54:04;;;;;;;1.60;1.50;;;0.70;98.20;;;;;;5007859;28;20578;-76
2021/04/07 00:56:31;;;;;;;1.90;1.80;;;0.70;98.20;;;;;;4992613;28;21248;-77
2021/04/07 00:58:57;;;;;;;1.70;1.60;;;0.70;98.20;;;;;;5011265;28;20511;-77
2021/04/07 01:01:23;;;;;;;1.60;1.50;;;0.70;98.20;;;;;;4990522;28;20589;-76
2021/04/07 01:03:49;;;;;;;1.70;1.60;;;0.70;98.20;;;;;;5013060;28;20536;-77
2021/04/07 01:06:17;;;;;;;1.63;1.53;;;0.70;98.20;;;;;;4989299;28;21154;-77
2021/04/07 01:08:43;;;;;;;1.60;1.50;;;0.70;98.20;;;;;;5014141;28;20991;-77
2021/04/07 01:11:10;;;;;;;1.73;1.63;;;0.70;98.20;;;;;;4992063;28;20486;-77
2021/04/07 01:13:36;;;;;;;1.70;1.60;;;0.70;98.20;;;;;;5016229;28;20527;-77
2021/04/07 01:16:03;;;;;;;1.60;1.50;;;0.70;98.20;;;;;;4982951;28;20476;-76
2021/04/07 01:18:32;;;;;;;1.70;1.60;;;0.70;98.20;;;;;;5017078;28;20508;-77
2021/04/07 01:21:00;;;;;;;1.70;1.60;;;0.70;98.20;;;;;;4983903;28;20482;-76
2021/04/07 01:23:27;;;;;;;1.60;1.50;;;0.70;98.20;;;;;;5019094;28;20460;-76
2021/04/07 01:25:54;;;;;;;1.70;1.60;;;0.70;98.20;;;;;;4973372;28;20472;-77
2021/04/07 01:28:21;;;;;;;1.80;1.70;;;0.70;98.20;;;;;;5011024;28;20488;-77
2021/04/07 01:30:47;;;;;;;1.67;1.57;;;0.70;98.20;;;;;;4973338;28;20461;-76
2021/04/07 01:33:24;;;;;;;1.80;1.70;;;0.70;98.20;;;;;;5018894;28;20489;-76
2021/04/07 01:35:51;;;;;;;1.60;1.50;;;0.80;98.20;;;;;;4981215;28;20465;-76
2021/04/07 01:38:18;;;;;;;1.70;1.60;;;0.80;98.20;;;;;;5020248;28;20583;-77
2021/04/07 01:40:45;;;;;;;1.60;1.50;;;0.80;98.20;;;;;;4988397;28;20480;-76
2021/04/07 01:43:15;;;;;;;1.80;1.70;;;0.80;98.20;;;;;;4979344;28;20480;-77
2021/04/07 01:45:43;;;;;;;1.67;1.57;;;0.80;98.20;;;;;;4991011;28;20461;-77
2021/04/07 01:48:09;;;;;;;1.60;1.50;;;0.70;98.20;;;;;;5011366;28;20513;-77
2021/04/07 01:50:37;;;;;;;1.67;1.57;;;0.70;98.20;;;;;;4986952;28;20818;-76
2021/04/07 01:53:03;;;;;;;1.60;1.50;;;0.70;98.20;;;;;;5011385;28;20548;-76
2021/04/07 01:55:30;;;;;;;1.67;1.57;;;0.70;98.20;;;;;;4988495;28;20527;-77
2021/04/07 01:57:56;;;;;;;1.70;1.60;;;0.70;98.20;;;;;;5011221;28;20490;-77
2021/04/07 02:00:24;;;;;;;1.60;1.50;;;0.70;98.20;;;;;;4987122;28;20491;-76
2021/04/07 02:02:50;;;;;;;1.70;1.60;;;0.80;98.20;;;;;;5012215;28;20482;-77
2021/04/07 02:05:17;;;;;;;1.80;1.70;;;0.80;98.20;;;;;;4986778;28;20977;-76
2021/04/07 02:07:43;;;;;;;1.90;1.80;;;0.80;98.20;;;;;;5010151;28;20526;-76
2021/04/07 02:10:11;;;;;;;1.80;1.70;;;0.80;98.20;;;;;;4989568;28;20480;-76
2021/04/07 02:12:37;;;;;;;1.80;1.70;;;0.80;98.20;;;;;;5010476;28;21423;-76
2021/04/07 02:15:10;;;;;;;1.77;1.67;;;0.80;98.20;;;;;;4991987;28;20489;-79
2021/04/07 02:17:37;;;;;;;1.60;1.50;;;0.80;98.20;;;;;;5005821;28;20568;-76
2021/04/07 02:20:06;;;;;;;1.70;1.60;;;0.90;98.20;;;;;;4992762;28;20464;-77
2021/04/07 02:22:32;;;;;;;1.70;1.60;;;0.90;98.20;;;;;;5004840;28;20580;-76
2021/04/07 02:24:58;;;;;;;1.70;1.60;;;0.90;98.20;;;;;;4989932;28;20465;-77
2021/04/07 02:27:26;;;;;;;1.70;1.60;;;0.90;98.20;;;;;;5005938;28;20511;-76
2021/04/07 02:29:54;;;;;;;1.70;1.60;;;0.90;98.20;;;;;;4996403;28;20572;-76
2021/04/07 02:32:21;;;;;;;1.70;1.60;;;1.00;98.20;;;;;;5001151;28;20483;-76
2021/04/07 02:34:48;;;;;;;1.60;1.50;;;1.00;98.20;;;;;;4994303;28;21103;-76
2021/04/07 02:37:16;;;;;;;1.60;1.50;;;1.00;98.20;;;;;;5000772;28;20551;-76
2021/04/07 02:39:43;;;;;;;1.80;1.70;;;1.00;98.20;;;;;;5017458;22;20504;-77
2021/04/07 02:42:11;;;;;;;1.70;1.60;;;1.00;98.20;;;;;;4991714;28;20634;-77
2021/04/07 02:44:38;;;;;;;1.60;1.50;;;1.00;98.20;;;;;;5006329;28;20460;-76
2021/04/07 02:47:05;;;;;;;1.70;1.60;;;0.90;98.20;;;;;;4987119;28;20488;-76
2021/04/07 02:49:33;;;;;;;1.70;1.60;;;0.90;98.20;;;;;;5006479;28;20476;-78
2021/04/07 02:52:00;;;;;;;1.60;1.50;;;0.90;98.20;;;;;;4985204;28;20505;-77
2021/04/07 02:54:26;;;;;;;1.60;1.50;;;0.90;98.20;;;;;;4999174;28;20550;-78
2021/04/07 02:56:52;;;;;;;1.60;1.50;;;0.90;98.20;;;;;;4997009;28;21124;-77
2021/04/07 02:59:19;;;;;;;1.80;1.70;;;0.90;98.20;;;;;;5006982;28;20483;-76
2021/04/07 03:01:45;;;;;;;1.60;1.50;;;0.90;98.20;;;;;;5000262;28;20471;-76
2021/04/07 03:04:13;;;;;;;1.70;1.60;;;0.90;98.20;;;;;;5004631;28;20469;-78
2021/04/07 03:06:39;;;;;;;2.33;2.13;;;0.90;98.20;;;;;;4992373;28;20706;-75
2021/04/07 03:09:07;;;;;;;1.60;1.50;;;0.90;98.20;;;;;;5006754;28;20495;-76
2021/04/07 03:11:34;;;;;;;3.30;3.10;;;0.90;98.20;;;;;;5005909;28;20493;-77
2021/04/07 03:14:00;;;;;;;1.60;1.50;;;0.90;98.20;;;;;;4997165;28;20560;-77
2021/04/07 03:16:27;;;;;;;1.60;1.50;;;0.90;98.20;;;;;;4991447;28;20492;-77
2021/04/07 03:18:53;;;;;;;1.63;1.53;;;0.90;98.20;;;;;;5002418;28;20638;-78
2021/04/07 03:21:20;;;;;;;1.73;1.63;;;0.90;98.20;;;;;;4993575;28;20527;-77
2021/04/07 03:23:46;;;;;;;1.70;1.60;;;0.90;98.20;;;;;;4999185;28;20464;-77
2021/04/07 03:26:14;;;;;;;1.60;1.50;;;0.90;98.20;;;;;;4989494;28;20487;-78
2021/04/07 03:28:40;;;;;;;1.60;1.50;;;0.90;98.20;;;;;;5001564;28;20477;-78
2021/04/07 03:31:06;;;;;;;1.60;1.50;;;1.00;98.20;;;;;;4990455;28;20476;-75
2021/04/07 03:33:34;;;;;;;1.70;1.60;;;1.00;98.20;;;;;;5007016;28;20985;-77
2021/04/07 03:36:02;;;;;;;1.60;1.50;;;1.00;98.20;;;;;;4990769;28;21053;-77
2021/04/07 03:38:29;;;;;;;1.70;1.60;;;1.00;98.20;;;;;;5002710;28;20472;-77
2021/04/07 03:40:55;;;;;;;1.67;1.57;;;1.00;98.20;;;;;;5002360;28;20524;-78
2021/04/07 03:43:23;;;;;;;1.80;1.70;;;1.00;98.20;;;;;;4991591;28;20461;-79
2021/04/07 03:45:51;;;;;;;1.60;1.50;;;1.10;98.20;;;;;;4999434;28;20464;-80
2021/04/07 03:48:18;;;;;;;1.80;1.70;;;1.10;98.20;;;;;;5010420;28;20836;-81
2021/04/07 03:50:46;;;;;;;1.60;1.40;;;1.10;98.20;;;;;;5012170;28;20468;-77
2021/04/07 03:53:13;;;;;;;1.70;1.60;;;1.10;98.20;;;;;;4990030;28;20472;-79
2021/04/07 03:55:41;;;;;;;1.60;1.50;;;1.20;98.20;;;;;;5010847;28;20526;-77
2021/04/07 03:58:07;;;;;;;1.60;1.50;;;1.20;98.20;;;;;;5003206;28;20563;-77
2021/04/07 04:00:34;;;;;;;1.73;1.63;;;1.20;98.20;;;;;;5014332;28;21173;-79
2021/04/07 04:03:01;;;;;;;1.70;1.60;;;1.20;98.20;;;;;;5003216;28;20480;-79
2021/04/07 04:05:27;;;;;;;1.60;1.50;;;1.20;98.20;;;;;;5007334;28;20466;-80
2021/04/07 04:07:53;;;;;;;1.60;1.50;;;1.20;98.20;;;;;;5000113;28;20468;-79
2021/04/07 04:10:20;;;;;;;1.70;1.60;;;1.20;98.20;;;;;;5015172;28;21014;-79
2021/04/07 04:12:46;;;;;;;1.80;1.70;;;1.30;98.20;;;;;;5001875;28;20515;-78
2021/04/07 04:15:14;;;;;;;1.70;1.60;;;1.30;98.20;;;;;;5014687;28;20705;-79
2021/04/07 04:17:42;;;;;;;1.60;1.50;;;1.30;98.20;;;;;;5003608;28;20580;-79
2021/04/07 04:20:09;;;;;;;1.60;1.50;;;1.30;98.20;;;;;;5009935;28;20490;-80
2021/04/07 04:22:39;;;;;;;1.60;1.50;;;1.30;98.20;;;;;;5003120;28;20515;-81
2021/04/07 04:25:08;;;;;;;1.60;1.50;;;1.30;98.20;;;;;;5014466;28;20464;-79
2021/04/07 04:27:34;;;;;;;1.70;1.60;;;1.30;98.20;;;;;;4997528;28;20487;-79
2021/04/07 04:30:01;;;;;;;1.60;1.50;;;1.30;98.20;;;;;;5011141;28;20490;-79
2021/04/07 04:32:28;;;;;;;1.83;1.73;;;1.30;98.20;;;;;;4999385;28;20645;-79
2021/04/07 04:34:55;;;;;;;1.67;1.57;;;1.30;98.20;;;;;;5014516;28;20993;-80
2021/04/07 04:37:21;;;;;;;1.60;1.50;;;1.30;98.20;;;;;;4987942;28;20484;-79
2021/04/07 04:39:48;;;;;;;1.60;1.50;;;1.30;98.20;;;;;;5006830;28;20532;-78
2021/04/07 04:42:14;;;;;;;1.70;1.60;;;1.30;98.20;;;;;;4999965;28;20531;-79
2021/04/07 04:44:40;;;;;;;1.60;1.50;;;1.40;98.20;;;;;;5020067;28;20702;-80
2021/04/07 04:47:07;;;;;;;1.70;1.60;;;1.40;98.20;;;;;;4999328;28;20526;-79
2021/04/07 04:49:33;;;;;;;1.73;1.63;;;1.40;98.20;;;;;;5012166;28;20488;-81
2021/04/07 04:52:00;;;;;;;1.60;1.50;;;1.40;98.20;;;;;;5004493;28;20476;-80
2021/04/07 04:54:26;;;;;;;1.60;1.50;;;1.40;98.20;;;;;;5008407;28;20494;-76
2021/04/07 04:56:53;;;;;;;1.60;1.50;;;1.40;98.20;;;;;;4994279;28;20480;-80
2021/04/07 04:59:19;;;;;;;1.70;1.60;;;1.40;98.20;;;;;;5011688;28;20492;-79
2021/04/07 05:01:46;;;;;;;1.60;1.50;;;1.40;98.20;;;;;;5006974;28;20486;-77
2021/04/07 05:04:12;;;;;;;1.60;1.40;;;1.40;98.20;;;;;;5008645;28;21008;-80
2021/04/07 05:06:39;;;;;;;1.60;1.50;;;1.40;98.20;;;;;;4998791;28;20546;-81
2021/04/07 05:09:07;;;;;;;1.70;1.60;;;1.40;98.20;;;;;;5016294;28;20631;-76
2021/04/07 05:11:33;;;;;;;1.60;1.50;;;1.50;98.20;;;;;;5004241;28;20489;-80
2021/04/07 05:14:00;;;;;;;1.70;1.60;;;1.40;98.20;;;;;;5012611;28;20480;-77
2021/04/07 05:16:26;;;;;;;1.80;1.70;;;1.40;98.20;;;;;;4998195;28;20520;-77
2021/04/07 05:18:53;;;;;;;1.70;1.60;;;1.50;98.20;;;;;;5017766;28;20487;-79
2021/04/07 05:21:19;;;;;;;1.60;1.50;;;1.50;98.20;;;;;;4998443;28;20485;-76
2021/04/07 05:23:46;;;;;;;1.60;1.50;;;1.50;98.20;;;;;;4999772;28;20495;-82
2021/04/07 05:26:13;;;;;;;1.60;1.50;;;1.50;98.20;;;;;;5003171;28;21147;-76
2021/04/07 05:28:42;;;;;;;1.60;1.50;;;1.50;98.20;;;;;;4995920;28;20480;-76
2021/04/07 05:31:09;;;;;;;1.70;1.60;;;1.50;98.20;;;;;;5007286;28;20495;-79
2021/04/07 05:33:37;;;;;;;1.60;1.50;;;1.50;98.20;;;;;;5011492;28;21017;-77
2021/04/07 05:36:06;;;;;;;1.70;1.60;;;1.50;98.20;;;;;;5003168;28;20464;-76
2021/04/07 05:38:33;;;;;;;1.60;1.50;;;1.50;98.20;;;;;;5013796;28;20963;-77
2021/04/07 05:41:01;;;;;;;1.60;1.50;;;1.60;98.20;;;;;;5005648;28;20489;-79
2021/04/07 05:43:30;;;;;;;1.60;1.50;;;1.60;98.20;;;;;;5039495;23;20499;-77
2021/04/07 05:45:56;;;;;;;1.60;1.50;;;1.60;98.20;;;;;;4997724;28;20514;-78
2021/04/07 05:48:23;;;;;;;1.60;1.50;;;1.60;98.20;;;;;;5013607;28;20545;-79
2021/04/07 05:50:51;;;;;;;1.60;1.50;;;1.60;98.20;;;;;;5002681;28;20498;-78
2021/04/07 05:53:18;;;;;;;1.70;1.60;;;1.50;98.20;;;;;;5031681;28;20460;-76
2021/04/07 05:55:45;;;;;;;1.60;1.50;;;1.50;98.20;;;;;;5020343;28;20784;-77
2021/04/07 05:58:16;;;;;;;1.60;1.50;;;1.50;98.20;;;;;;5004375;28;20472;-79
2021/04/07 06:00:45;;;;;;;1.60;1.50;;;1.50;98.20;;;;;;5019085;28;20680;-78
2021/04/07 06:03:12;;;;;;;1.60;1.50;;;1.60;98.20;;;;;;5006502;28;20727;-77
2021/04/07 06:05:40;;;;;;;1.60;1.50;;;1.60;98.20;;;;;;5018159;28;20589;-77
2021/04/07 06:08:08;;;;;;;1.60;1.50;;;1.60;98.20;;;;;;5018472;28;20475;-79
2021/04/07 06:10:37;;;;;;;1.70;1.60;;;1.60;98.20;;;;;;5019550;28;20477;-77
2021/04/07 06:13:04;;;;;;;1.60;1.50;;;1.60;98.20;;;;;;5027022;28;20491;-78
2021/04/07 06:15:32;;;;;;;1.60;1.50;;;1.60;98.20;;;;;;5016596;28;20560;-80
2021/04/07 06:18:01;;;;;;;1.60;1.50;;;1.60;98.20;;;;;;5025762;28;20558;-77
2021/04/07 06:20:31;;;;;;;1.60;1.40;;;1.50;98.20;;;;;;5022368;28;20535;-77
2021/04/07 06:23:00;;;;;;;1.70;1.60;;;1.50;98.20;;;;;;5014842;28;20496;-79
2021/04/07 06:25:28;;;;;;;1.80;1.70;;;1.50;98.20;;;;;;5017159;28;20553;-79
2021/04/07 06:27:56;;;;;;;1.60;1.50;;;1.50;98.20;;;;;;5025056;28;20521;-79
2021/04/07 06:30:40;;;;;;;1.60;1.50;;;1.50;98.20;;;;;;5021720;28;20892;-76
2021/04/07 06:33:12;;;;;;;1.60;1.50;;;1.50;98.20;;;;;;5025043;28;20501;-80
2021/04/07 06:35:39;;;;;;;1.60;1.50;;;1.50;98.20;;;;;;5021413;28;20501;-79
2021/04/07 06:38:05;;;;;;;1.60;1.50;;;1.50;98.20;;;;;;5025681;28;20566;-82
2021/04/07 06:40:32;;;;;;;1.60;1.50;;;1.50;98.20;;;;;;5015617;28;20476;-81
2021/04/07 06:43:00;;;;;;;1.60;1.50;;;1.50;98.20;;;;;;5024456;28;20476;-83
2021/04/07 06:45:27;;;;;;;1.60;1.50;;;1.50;98.20;;;;;;5018887;28;20893;-81
2021/04/07 06:47:54;;;;;;;1.60;1.50;;;1.50;98.20;;;;;;5023903;28;20900;-84
2021/04/07 06:50:23;;;;;;;1.60;1.50;;;1.50;98.20;;;;;;5013782;28;21006;-83
2021/04/07 06:52:51;;;;;;;1.60;1.50;;;1.50;98.20;;;;;;5017867;28;20557;-83
2021/04/07 06:55:18;;;;;;;1.60;1.50;;;1.50;98.20;;;;;;5015495;28;20506;-84
2021/04/07 06:57:45;;;;;;;1.60;1.50;;;1.50;98.20;;;;;;5014725;28;20554;-82
2021/04/07 07:00:13;;;;;;;1.70;1.60;;;1.60;98.20;;;;;;5009591;28;20492;-78
2021/04/07 07:02:40;;;;;;;1.70;1.60;;;1.60;98.20;;;;;;5014340;28;20574;-83
2021/04/07 07:05:10;;;;;;;1.70;1.60;;;1.60;98.20;;;;;;5015408;28;20456;-83
2021/04/07 07:07:37;;;;;;;1.60;1.50;;;1.70;98.20;;;;;;5015982;28;20494;-80
2021/04/07 07:10:13;;;;;;;1.60;1.50;;;1.70;98.20;;;;;;5015447;28;20965;-79
2021/04/07 07:12:40;;;;;;;1.60;1.50;;;1.70;98.20;;;;;;5010236;28;20477;-80
2021/04/07 07:15:08;;;;;;;1.60;1.50;;;1.70;98.20;;;;;;5011724;28;20511;-78
2021/04/07 07:17:35;;;;;;;1.70;1.60;;;1.70;98.20;;;;;;5017296;28;20484;-77
2021/04/07 07:20:02;;;;;;;1.60;1.47;;;1.80;98.20;;;;;;5009051;28;20556;-80
2021/04/07 07:22:32;;;;;;;1.60;1.50;;;1.80;98.20;;;;;;5009979;28;20513;-80
2021/04/07 07:25:01;;;;;;;1.60;1.50;;;1.80;98.20;;;;;;5012521;28;20547;-78
2021/04/07 07:27:38;;;;;;;1.67;1.57;;;1.70;98.20;;;;;;5009561;28;20571;-76
2021/04/07 07:30:07;;;;;;;1.60;1.40;;;1.80;98.20;;;;;;5009181;28;20488;-74
2021/04/07 07:32:37;;;;;;;1.60;1.40;;;1.80;98.20;;;;;;5011707;28;20475;-78
2021/04/07 07:35:11;;;;;;;1.60;1.50;;;1.80;98.20;;;;;;5011355;28;20488;-77
2021/04/07 07:37:42;;;;;;;1.60;1.50;;;1.70;98.20;;;;;;5010193;28;20482;-78
2021/04/07 07:40:24;;;;;;;1.60;1.50;;;1.70;98.20;;;;;;5005678;28;20491;-79
2021/04/07 07:42:50;;;;;;;1.60;1.50;;;1.70;98.20;;;;;;5005471;28;20502;-78
2021/04/07 07:45:27;;;;;;;1.60;1.50;;;1.70;98.20;;;;;;5003983;28;20540;-80
2021/04/07 07:48:02;;;;;;;1.60;1.50;;;1.70;98.20;;;;;;5008056;22;20503;-80
2021/04/07 07:50:38;;;;;;;1.60;1.50;;;1.70;98.20;;;;;;5007179;28;20789;-75
2021/04/07 07:53:12;;;;;;;1.60;1.50;;;1.70;98.20;;;;;;4998553;28;20523;-77
2021/04/07 07:55:41;;;;;;;1.90;1.80;;;1.70;98.20;;;;;;5010323;28;20496;-78
2021/04/07 07:58:07;;;;;;;1.60;1.40;;;1.80;98.20;;;;;;4997272;28;20511;-77
2021/04/07 08:00:34;;;;;;;1.60;1.50;;;1.80;98.20;;;;;;4997177;28;20499;-78
2021/04/07 08:03:08;;;;;;;1.60;1.40;;;1.80;98.20;;;;;;4983433;28;20488;-80
2021/04/07 08:05:36;;;;;;;1.60;1.40;;;1.90;98.20;;;;;;5001580;28;20468;-77
2021/04/07 08:08:03;;;;;;;1.63;1.53;;;1.90;98.20;;;;;;4991931;28;20484;-75
2021/04/07 08:10:30;;;;;;;1.70;1.60;;;1.90;98.20;;;;;;5007596;28;20510;-78
2021/04/07 08:13:01;;;;;;;1.60;1.50;;;2.00;98.20;;;;;;4989390;28;20485;-77
2021/04/07 08:15:29;;;;;;;1.70;1.60;;;2.00;98.20;;;;;;5002719;28;20562;-77
2021/04/07 08:17:55;;;;;;;1.60;1.47;;;2.10;98.20;;;;;;4993690;28;20829;-77
2021/04/07 08:20:23;;;;;;;1.60;1.50;;;2.20;98.20;;;;;;4997869;28;20496;-79
2021/04/07 08:22:51;;;;;;;1.60;1.43;;;2.20;98.20;;;;;;4994775;28;20487;-76
2021/04/07 08:25:18;;;;;;;1.60;1.50;;;2.30;98.20;;;;;;5005561;28;20467;-77
2021/04/07 08:27:48;;;;;;;1.60;1.40;;;2.30;98.20;;;;;;4992430;28;20485;-77
2021/04/07 08:30:16;;;;;;;1.60;1.50;;;2.30;98.20;;;;;;4999357;28;20488;-75
2021/04/07 08:32:45;;;;;;;1.60;1.50;;;2.30;98.20;;;;;;4978872;28;20484;-78
2021/04/07 08:35:12;;;;;;;1.60;1.40;;;2.30;98.20;;;;;;4999280;28;21161;-79
2021/04/07 08:37:38;;;;;;;1.60;1.40;;;2.30;98.20;;;;;;4985162;28;20480;-78
2021/04/07 08:40:23;;;;;;;1.60;1.40;;;2.40;98.20;;;;;;5010918;28;20482;-78
2021/04/07 08:42:51;;;;;;;1.60;1.50;;;2.40;98.20;;;;;;4995547;28;20567;-79
2021/04/07 08:45:19;;;;;;;1.60;1.50;;;2.50;98.20;;;;;;5007396;28;20865;-78
2021/04/07 08:47:52;;;;;;;1.60;1.40;;;2.50;98.20;;;;;;4997501;28;20491;-79
2021/04/07 08:50:19;;;;;;;1.60;1.40;;;2.50;98.20;;;;;;5010958;28;20497;-78
2021/04/07 08:52:46;;;;;;;1.60;1.40;;;2.50;98.20;;;;;;5004462;28;20550;-81
2021/04/07 08:55:18;;;;;;;1.60;1.50;;;2.50;98.20;;;;;;5007976;28;21010;-78
2021/04/07 08:57:44;;;;;;;1.60;1.50;;;2.50;98.20;;;;;;5003262;28;20511;-77
2021/04/07 09:00:13;;;;;;;1.60;1.50;;;2.50;98.20;;;;;;5012982;28;20495;-78
2021/04/07 09:02:50;;;;;;;1.60;1.40;;;2.50;98.20;;;;;;4997936;28;20542;-79
2021/04/07 09:05:29;;;;;;;1.60;1.47;;;2.40;98.20;;;;;;5014425;28;20499;-80
2021/04/07 09:07:57;;;;;;;1.60;1.50;;;2.50;98.20;;;;;;5002085;28;20566;-81
2021/04/07 09:10:24;;;;;;;1.60;1.40;;;2.60;98.20;;;;;;5017982;28;20508;-79
2021/04/07 09:12:52;;;;;;;1.60;1.50;;;2.60;98.20;;;;;;5005296;28;20483;-79
2021/04/07 09:15:21;;;;;;;1.60;1.40;;;2.70;98.20;;;;;;5016533;28;20549;-79
2021/04/07 09:17:51;;;;;;;1.60;1.50;;;2.70;98.20;;;;;;5010727;28;21101;-77
2021/04/07 09:20:39;;;;;;;1.60;1.50;;;2.70;98.20;;;;;;5013485;28;21068;-79
2021/04/07 09:23:17;;;;;;;1.60;1.40;;;2.70;98.20;;;;;;5003333;28;20543;-78
2021/04/07 09:25:52;;;;;;;1.60;1.50;;;2.70;98.20;;;;;;5017746;28;20460;-77
2021/04/07 09:28:18;;;;;;;1.60;1.40;;;2.70;98.20;;;;;;4982873;28;20471;-77
2021/04/07 09:30:48;;;;;;;1.60;1.40;;;2.70;98.20;;;;;;5005053;28;20471;-77
2021/04/07 09:33:18;;;;;;;1.60;1.40;;;2.70;98.20;;;;;;4979716;28;20487;-77
2021/04/07 09:35:58;;;;;;;1.60;1.40;;;2.80;98.20;;;;;;5007804;28;20626;-77
2021/04/07 09:38:25;;;;;;;1.60;1.40;;;2.90;98.20;;;;;;4979619;28;20500;-76
2021/04/07 09:41:02;;;;;;;1.60;1.50;;;2.90;98.20;;;;;;4998318;28;20474;-76
2021/04/07 09:43:30;;;;;;;1.60;1.40;;;2.90;98.20;;;;;;4999676;28;20487;-77
2021/04/07 09:45:56;;;;;;;1.60;1.47;;;2.80;98.20;;;;;;4991194;28;20473;-74
2021/04/07 09:48:34;;;;;;;1.60;1.40;;;2.80;98.20;;;;;;5002212;28;20488;-77
2021/04/07 09:51:01;;;;;;;1.60;1.40;;;2.70;98.20;;;;;;4989931;28;20467;-78
2021/04/07 09:53:28;;;;;;;1.60;1.50;;;2.70;98.20;;;;;;5006750;28;20534;-77
2021/04/07 09:56:00;;;;;;;1.60;1.40;;;2.60;98.20;;;;;;4998009;28;20978;-77
2021/04/07 09:58:26;;;;;;;1.60;1.50;;;2.60;98.20;;;;;;5006104;28;20475;-75
2021/04/07 10:00:55;;;;;;;1.60;1.40;;;2.70;98.20;;;;;;4987306;28;20472;-74
2021/04/07 10:03:21;;;;;;;1.60;1.40;;;2.70;98.20;;;;;;4999565;28;20460;-74
2021/04/07 10:05:48;;;;;;;1.60;1.50;;;2.80;98.20;;;;;;4995703;28;20487;-75
2021/04/07 10:08:16;;;;;;;1.60;1.50;;;2.90;98.20;;;;;;4984710;28;20469;-76
2021/04/07 10:10:42;;;;;;;1.60;1.50;;;3.00;98.20;;;;;;5000508;28;20886;-77
2021/04/07 10:13:09;;;;;;;1.70;1.60;;;3.10;98.20;;;;;;4978449;28;20488;-75
2021/04/07 10:15:37;;;;;;;1.60;1.50;;;3.10;98.20;;;;;;5007767;28;20561;-74
2021/04/07 10:18:08;;;;;;;1.60;1.50;;;3.20;98.20;;;;;;4995030;28;20504;-76
2021/04/07 10:20:35;;;;;;;1.60;1.40;;;3.30;98.20;;;;;;4998733;28;20511;-76
2021/04/07 10:23:08;;;;;;;1.60;1.40;;;3.40;98.20;;;;;;4974455;28;20481;-76
2021/04/07 10:25:35;;;;;;;1.60;1.40;;;3.40;98.20;;;;;;5006440;28;20483;-76
2021/04/07 10:28:01;;;;;;;1.60;1.40;;;3.40;98.20;;;;;;4990474;28;21088;-75
2021/04/07 10:30:35;;;;;;;1.60;1.50;;;3.50;98.20;;;;;;5000172;28;20483;-75
2021/04/07 10:33:02;;;;;;;1.60;1.40;;;3.70;98.20;;;;;;4985213;28;20492;-75
2021/04/07 10:35:31;;;;;;;1.60;1.30;;;3.90;98.20;;;;;;5002300;28;20488;-75
2021/04/07 10:37:59;;;;;;;1.60;1.50;;;4.00;98.20;;;;;;4984975;28;20543;-76
2021/04/07 10:40:27;;;;;;;1.60;1.30;;;4.10;98.20;;;;;;5007663;28;21021;-76
2021/04/07 10:42:54;;;;;;;1.60;1.40;;;4.20;98.20;;;;;;4995345;28;20494;-75
2021/04/07 10:45:22;;;;;;;1.60;1.40;;;4.30;98.20;;;;;;5001832;28;20465;-75
2021/04/07 10:47:48;;;;;;;1.60;1.30;;;4.30;98.20;;;;;;4987492;28;20622;-74
2021/04/07 10:50:15;;;;;;;1.60;1.40;;;4.40;98.20;;;;;;5001581;28;20480;-75
2021/04/07 10:52:44;;;;;;;1.60;1.40;;;4.40;98.20;;;;;;4993769;28;21244;-74
2021/04/07 10:55:14;;;;;;;1.60;1.33;;;4.30;98.20;;;;;;5005020;28;20492;-76
2021/04/07 10:57:45;;;;;;;1.57;1.30;;;4.20;98.20;;;;;;4991926;28;20896;-76
2021/04/07 11:00:24;;;;;;;1.60;1.30;;;4.10;98.20;;;;;;5001809;28;20510;-76
2021/04/07 11:02:52;;;;;;;1.60;1.40;;;4.10;98.20;;;;;;4980034;28;20511;-74
2021/04/07 11:05:20;;;;;;;1.60;1.30;;;4.10;98.20;;;;;;4999239;28;20546;-74
2021/04/07 11:07:47;;;;;;;1.60;1.40;;;4.20;98.20;;;;;;4971019;28;20486;-75
2021/04/07 11:10:15;;;;;;;1.60;1.40;;;4.30;98.20;;;;;;5001617;28;20487;-77
2021/04/07 11:12:43;;;;;;;1.60;1.37;;;4.30;98.20;;;;;;4969787;28;20588;-75
2021/04/07 11:15:13;;;;;;;1.60;1.30;;;4.50;98.20;;;;;;5001639;28;20784;-77
2021/04/07 11:17:49;;;;;;;1.57;1.30;;;4.60;98.20;;;;;;4990660;28;20883;-75
2021/04/07 11:20:16;;;;;;;1.60;1.40;;;4.70;98.20;;;;;;5005349;28;20491;-75
2021/04/07 11:22:43;;;;;;;1.60;1.40;;;4.80;98.20;;;;;;4971054;28;20489;-74
2021/04/07 11:25:10;;;;;;;1.60;1.33;;;4.80;98.20;;;;;;5001587;28;20486;-75
2021/04/07 11:27:36;;;;;;;1.60;1.30;;;4.90;98.20;;;;;;4990517;28;21015;-75
2021/04/07 11:30:05;;;;;;;1.60;1.30;;;5.10;98.20;;;;;;5005215;28;20499;-74
2021/04/07 11:32:35;;;;;;;1.60;1.40;;;5.20;98.20;;;;;;4992606;28;20530;-75
2021/04/07 11:35:04;;;;;;;1.60;1.30;;;5.40;98.20;;;;;;5000508;28;20502;-76
2021/04/07 11:37:37;;;;;;;1.60;1.37;;;5.60;98.20;;;;;;4995143;28;20960;-76
2021/04/07 11:40:07;;;;;;;1.60;1.20;;;5.80;98.20;;;;;;5006754;28;20484;-76
2021/04/07 11:42:44;;;;;;;1.60;1.30;;;6.00;98.20;;;;;;4998179;28;20723;-76
2021/04/07 11:45:13;;;;;;;1.60;1.30;;;6.10;98.20;;;;;;4999460;28;20837;-76
2021/04/07 11:47:39;;;;;;;1.60;1.20;;;6.20;98.20;;;;;;4990572;28;20542;-76
2021/04/07 11:50:07;;;;;;;1.60;1.40;;;6.30;98.20;;;;;;4998845;28;20901;-76
2021/04/07 11:52:34;;;;;;;1.60;1.30;;;6.40;98.20;;;;;;4994315;28;20522;-75
2021/04/07 11:55:00;;;;;;;3.53;3.10;;;6.60;98.20;;;;;;5005062;28;20530;-75
2021/04/07 11:57:26;;;;;;;1.57;1.20;;;6.90;98.20;;;;;;4995489;28;20686;-75
2021/04/07 11:59:53;;;;;;;1.60;1.37;;;7.10;98.20;;;;;;5000862;28;20488;-74
2021/04/07 12:02:20;;;;;;;1.57;1.30;;;7.30;98.20;;;;;;4993503;28;20487;-75
2021/04/07 12:04:47;;;;;;;1.60;1.30;;;7.40;98.20;;;;;;4995639;28;20463;-75
2021/04/07 12:07:14;;;;;;;1.60;1.30;;;7.50;98.20;;;;;;4973257;28;20476;-75
2021/04/07 12:09:40;;;;;;;1.53;1.10;;;7.60;98.20;;;;;;4998655;28;20480;-76
2021/04/07 12:12:08;;;;;;;1.60;1.30;;;7.50;98.20;;;;;;4979036;28;20579;-76
2021/04/07 12:14:35;;;;;;;1.57;1.20;;;7.30;98.20;;;;;;4991564;28;20488;-77
2021/04/07 12:17:02;;;;;;;1.53;1.20;;;7.10;98.20;;;;;;4992244;28;20484;-76
2021/04/07 12:19:29;;;;;;;1.50;1.27;;;7.00;98.20;;;;;;5006844;28;20484;-76
2021/04/07 12:21:55;;;;;;;1.50;1.23;;;6.80;98.20;;;;;;4996274;28;20488;-78
2021/04/07 12:24:21;;;;;;;1.53;1.20;;;6.70;98.20;;;;;;4997984;28;20759;-75
2021/04/07 12:26:48;;;;;;;1.53;1.20;;;6.50;98.20;;;;;;4991707;28;20869;-75
2021/04/07 12:29:14;;;;;;;1.57;1.20;;;6.50;98.20;;;;;;5004336;28;20491;-76
2021/04/07 12:31:40;;;;;;;1.57;1.30;;;6.40;98.20;;;;;;4995513;28;20535;-79
2021/04/07 12:34:07;;;;;;;2.33;2.13;;;6.30;98.20;;;;;;5005603;28;20468;-76
2021/04/07 12:36:34;;;;;;;1.60;1.30;;;6.30;98.20;;;;;;4994787;28;20979;-77
2021/04/07 12:39:02;;;;;;;1.57;1.27;;;6.20;98.20;;;;;;5002886;28;20995;-77
2021/04/07 12:41:31;;;;;;;1.57;1.30;;;6.20;98.20;;;;;;4989512;28;21063;-77
2021/04/07 12:43:58;;;;;;;1.57;1.20;;;6.20;98.20;;;;;;4999877;28;20472;-76
2021/04/07 12:46:24;;;;;;;1.53;1.20;;;6.30;98.20;;;;;;4993545;28;20479;-76
2021/04/07 12:48:51;;;;;;;1.60;1.30;;;6.20;98.20;;;;;;4995734;28;20666;-76
2021/04/07 12:51:19;;;;;;;1.53;1.27;;;6.30;98.20;;;;;;4986841;28;20743;-76
2021/04/07 12:53:48;;;;;;;1.60;1.30;;;6.20;98.20;;;;;;5006554;28;20902;-76
2021/04/07 12:56:15;;;;;;;1.60;1.40;;;6.20;98.20;;;;;;4996359;28;20489;-75
2021/04/07 12:58:42;;;;;;;1.50;1.20;;;6.10;98.20;;;;;;5000995;28;20549;-77
2021/04/07 13:01:09;;;;;;;1.53;1.20;;;6.10;98.20;;;;;;4991856;28;20557;-77